Time;durP1;ratioP1;P1;durP2;ratioP2;P2;SDS_P1;SDS_P2;PMS_P1;PMS_P2;Temp;Humidity;BMP_temperature;BMP_pressure;BME280_temperature;BME280_humidity;BME280_pressure;Samples;Min_cycle;Max_cycle;Signal;HPM_P1;HPM_P2
2024/01/20 00:00:37;;;;;;;0.63;0.63;;;5.30;99.90;;;;;;5034852;28;20032;-71
2024/01/20 00:03:03;;;;;;;0.60;0.60;;;5.30;99.90;;;;;;5033473;28;20104;-72
2024/01/20 00:05:29;;;;;;;4.63;1.48;;;5.40;99.90;;;;;;5032282;28;20125;-71
2024/01/20 00:07:54;;;;;;;3.03;1.88;;;5.40;99.90;;;;;;5033663;28;20106;-70
2024/01/20 00:10:20;;;;;;;0.55;0.55;;;5.30;99.90;;;;;;5032880;28;20474;-70
2024/01/20 00:12:45;;;;;;;0.70;0.70;;;5.40;99.90;;;;;;5033287;28;20087;-71
2024/01/20 00:15:11;;;;;;;1.45;0.77;;;5.40;99.90;;;;;;5033336;28;20091;-70
2024/01/20 00:17:38;;;;;;;0.50;0.50;;;5.40;99.90;;;;;;5033040;28;20040;-70
2024/01/20 00:20:04;;;;;;;1.10;1.00;;;5.40;99.90;;;;;;5031694;28;20108;-71
2024/01/20 00:22:30;;;;;;;1.98;1.63;;;5.40;99.90;;;;;;5032172;28;20470;-71
2024/01/20 00:24:59;;;;;;;1.50;1.40;;;5.40;99.90;;;;;;5032241;28;20039;-69
2024/01/20 00:27:25;;;;;;;1.48;1.00;;;5.40;99.90;;;;;;5032805;28;20025;-70
2024/01/20 00:29:50;;;;;;;1.05;1.00;;;5.50;99.90;;;;;;5031663;28;20033;-70
2024/01/20 00:32:16;;;;;;;1.60;1.23;;;5.50;99.90;;;;;;5032765;28;20034;-70
2024/01/20 00:34:41;;;;;;;1.60;1.33;;;5.50;99.90;;;;;;5032847;28;20060;-70
2024/01/20 00:37:07;;;;;;;1.48;1.35;;;5.50;99.90;;;;;;5033176;28;20080;-70
2024/01/20 00:39:32;;;;;;;7.13;0.95;;;5.50;99.90;;;;;;5032743;28;20095;-70
2024/01/20 00:41:58;;;;;;;0.60;0.60;;;5.50;99.90;;;;;;5031483;28;20381;-70
2024/01/20 00:44:23;;;;;;;0.32;0.32;;;5.50;99.90;;;;;;5032425;28;20038;-71
2024/01/20 00:46:49;;;;;;;1.00;1.00;;;5.50;99.90;;;;;;5032754;28;20052;-70
2024/01/20 00:49:14;;;;;;;1.42;0.88;;;5.50;99.90;;;;;;5032445;28;20033;-69
2024/01/20 00:51:40;;;;;;;2.60;1.38;;;5.40;99.90;;;;;;5033247;28;20029;-70
2024/01/20 00:54:06;;;;;;;0.80;0.80;;;5.40;99.90;;;;;;5032488;28;20087;-69
2024/01/20 00:56:32;;;;;;;2.05;1.20;;;5.30;99.90;;;;;;5032405;28;20092;-70
2024/01/20 00:58:58;;;;;;;4.32;1.58;;;5.30;99.90;;;;;;5032672;28;20029;-71
2024/01/20 01:01:23;;;;;;;2.25;1.17;;;5.30;99.90;;;;;;5032939;28;20033;-72
2024/01/20 01:03:49;;;;;;;0.60;0.60;;;5.30;99.90;;;;;;5032276;28;20035;-71
2024/01/20 01:06:14;;;;;;;0.77;0.77;;;5.30;99.90;;;;;;5031861;28;20081;-70
2024/01/20 01:08:41;;;;;;;1.10;0.98;;;5.30;99.90;;;;;;5032005;28;20025;-71
2024/01/20 01:11:07;;;;;;;0.40;0.40;;;5.40;99.90;;;;;;5031825;28;20124;-71
2024/01/20 01:13:35;;;;;;;0.40;0.40;;;5.40;99.90;;;;;;5030837;28;20159;-71
2024/01/20 01:16:01;;;;;;;9.70;3.15;;;5.30;99.90;;;;;;5032192;28;20037;-74
2024/01/20 01:18:28;;;;;;;2.88;1.10;;;5.40;99.90;;;;;;5030731;28;20068;-68
2024/01/20 01:20:53;;;;;;;1.17;1.10;;;5.40;99.90;;;;;;5032166;28;20064;-72
2024/01/20 01:23:19;;;;;;;1.70;1.00;;;5.40;99.90;;;;;;5030700;28;20021;-72
2024/01/20 01:25:45;;;;;;;0.45;0.45;;;5.40;99.90;;;;;;5031843;28;20029;-70
2024/01/20 01:28:10;;;;;;;3.83;2.88;;;5.40;99.90;;;;;;5031865;28;20045;-68
2024/01/20 01:30:36;;;;;;;3.15;0.90;;;5.40;99.90;;;;;;5030428;28;20044;-73
2024/01/20 01:33:01;;;;;;;0.88;0.88;;;5.40;99.90;;;;;;5031786;28;20512;-71
2024/01/20 01:35:27;;;;;;;1.65;0.73;;;5.30;99.90;;;;;;5031680;28;20044;-71
2024/01/20 01:37:52;;;;;;;0.47;0.47;;;5.40;99.90;;;;;;5031441;28;20105;-73
2024/01/20 01:40:18;;;;;;;0.40;0.40;;;5.40;99.90;;;;;;5031451;28;20037;-71
2024/01/20 01:42:43;;;;;;;3.95;0.70;;;5.40;99.90;;;;;;5031391;28;20037;-72
2024/01/20 01:45:09;;;;;;;6.22;3.03;;;5.40;99.90;;;;;;5032062;28;20030;-72
2024/01/20 01:47:35;;;;;;;0.98;0.90;;;5.50;99.90;;;;;;5031709;28;20029;-72
2024/01/20 01:50:02;;;;;;;0.32;0.32;;;5.50;99.90;;;;;;5031589;28;20051;-71
2024/01/20 01:52:29;;;;;;;3.47;0.98;;;5.60;99.90;;;;;;5029937;28;20061;-71
2024/01/20 01:54:56;;;;;;;3.50;1.70;;;5.60;99.90;;;;;;5031367;28;20500;-72
2024/01/20 01:57:23;;;;;;;3.28;1.38;;;5.50;99.90;;;;;;5031234;28;20158;-72
2024/01/20 01:59:49;;;;;;;2.58;1.20;;;5.50;99.90;;;;;;5031488;28;20057;-73
2024/01/20 02:02:15;;;;;;;0.55;0.55;;;5.50;99.90;;;;;;5031129;28;20048;-72
2024/01/20 02:04:40;;;;;;;3.35;0.77;;;5.50;99.90;;;;;;5031590;28;20381;-69
2024/01/20 02:07:06;;;;;;;2.33;0.70;;;5.50;99.90;;;;;;5029646;28;20120;-70
2024/01/20 02:09:32;;;;;;;1.45;0.30;;;5.60;99.90;;;;;;5031125;28;20064;-72
2024/01/20 02:11:59;;;;;;;0.77;0.75;;;5.50;99.90;;;;;;5031021;28;20037;-73
2024/01/20 02:14:25;;;;;;;0.47;0.40;;;5.60;99.90;;;;;;5031361;28;20030;-72
2024/01/20 02:16:51;;;;;;;1.85;1.13;;;5.60;99.90;;;;;;5031004;28;20075;-73
2024/01/20 02:19:16;;;;;;;3.53;1.02;;;5.50;99.90;;;;;;5031416;28;20132;-71
2024/01/20 02:21:42;;;;;;;0.32;0.32;;;5.50;99.90;;;;;;5030710;28;20037;-74
2024/01/20 02:24:09;;;;;;;2.33;1.15;;;5.50;99.90;;;;;;5031164;28;20028;-71
2024/01/20 02:26:34;;;;;;;0.25;0.25;;;5.60;99.90;;;;;;5031149;28;20022;-70
2024/01/20 02:29:00;;;;;;;5.68;2.38;;;5.60;99.90;;;;;;5029818;28;20025;-72
2024/01/20 02:31:25;;;;;;;0.22;0.22;;;5.60;99.90;;;;;;5030910;28;20159;-73
2024/01/20 02:33:51;;;;;;;0.73;0.73;;;5.60;99.90;;;;;;5032380;28;20033;-70
2024/01/20 02:36:16;;;;;;;0.43;0.43;;;5.70;99.90;;;;;;5035471;28;20138;-70
2024/01/20 02:38:42;;;;;;;0.22;0.22;;;5.60;99.90;;;;;;5035214;28;20041;-70
2024/01/20 02:41:07;;;;;;;1.02;0.90;;;5.70;99.90;;;;;;5035752;28;20032;-72
2024/01/20 02:43:33;;;;;;;0.52;0.40;;;5.70;99.90;;;;;;5035356;28;20033;-73
2024/01/20 02:45:58;;;;;;;0.40;0.40;;;5.60;99.90;;;;;;5036859;28;20029;-72
2024/01/20 02:48:25;;;;;;;0.20;0.20;;;5.60;99.90;;;;;;5036502;28;20033;-72
2024/01/20 02:50:50;;;;;;;3.50;0.60;;;5.50;99.90;;;;;;5034665;28;20588;-71
2024/01/20 02:53:16;;;;;;;1.45;1.00;;;5.50;99.90;;;;;;5034675;28;20033;-69
2024/01/20 02:55:41;;;;;;;0.32;0.32;;;5.50;99.90;;;;;;5034313;28;20054;-72
2024/01/20 02:58:08;;;;;;;0.30;0.30;;;5.40;99.90;;;;;;5034288;28;20075;-73
2024/01/20 03:00:34;;;;;;;1.55;0.43;;;5.40;99.90;;;;;;5034041;28;20418;-70
2024/01/20 03:02:59;;;;;;;0.82;0.70;;;5.30;99.90;;;;;;5034215;28;20057;-72
2024/01/20 03:05:25;;;;;;;0.32;0.32;;;5.30;99.90;;;;;;5033681;28;20037;-70
2024/01/20 03:07:50;;;;;;;0.20;0.20;;;5.30;99.90;;;;;;5034328;28;20041;-71
2024/01/20 03:10:16;;;;;;;1.48;0.88;;;5.30;99.90;;;;;;5035456;28;20080;-70
2024/01/20 03:12:42;;;;;;;0.50;0.50;;;5.30;99.90;;;;;;5036368;28;20029;-70
2024/01/20 03:15:07;;;;;;;0.30;0.30;;;5.30;99.90;;;;;;5035935;28;20052;-72
2024/01/20 03:17:33;;;;;;;1.13;0.50;;;5.30;99.90;;;;;;5035954;28;20030;-71
2024/01/20 03:19:59;;;;;;;0.25;0.25;;;5.30;99.90;;;;;;5035604;28;20025;-71
2024/01/20 03:22:24;;;;;;;0.20;0.20;;;5.40;99.90;;;;;;5035758;28;20466;-72
2024/01/20 03:24:50;;;;;;;0.20;0.20;;;5.30;99.90;;;;;;5035686;28;20022;-72
2024/01/20 03:27:18;;;;;;;5.05;1.02;;;5.40;99.90;;;;;;5035625;28;20078;-71
2024/01/20 03:29:43;;;;;;;1.75;0.63;;;5.40;99.90;;;;;;5035594;28;20026;-72
2024/01/20 03:32:09;;;;;;;6.60;0.90;;;5.40;99.90;;;;;;5035282;28;20152;-70
2024/01/20 03:34:35;;;;;;;1.08;0.50;;;5.40;99.90;;;;;;5035607;28;20025;-71
2024/01/20 03:37:00;;;;;;;1.45;0.55;;;5.50;99.90;;;;;;5035413;28;20037;-70
2024/01/20 03:39:26;;;;;;;1.55;0.77;;;5.50;99.90;;;;;;5035243;28;20036;-71
2024/01/20 03:41:52;;;;;;;0.20;0.20;;;5.50;99.90;;;;;;5035448;28;20029;-71
2024/01/20 03:44:17;;;;;;;1.17;0.30;;;5.50;99.90;;;;;;5035549;28;20033;-71
2024/01/20 03:46:43;;;;;;;1.52;0.60;;;5.50;99.90;;;;;;5034449;28;20116;-69
2024/01/20 03:49:08;;;;;;;1.25;0.82;;;5.60;99.90;;;;;;5033675;28;20389;-69
2024/01/20 03:51:34;;;;;;;0.30;0.30;;;5.60;99.90;;;;;;5034982;28;20030;-69
2024/01/20 03:54:01;;;;;;;0.40;0.38;;;5.70;99.90;;;;;;5033821;28;20118;-71
2024/01/20 03:56:27;;;;;;;0.20;0.20;;;5.70;99.90;;;;;;5035093;28;20041;-72
2024/01/20 03:58:52;;;;;;;3.17;0.88;;;5.70;99.90;;;;;;5034791;28;20036;-71
2024/01/20 04:01:18;;;;;;;1.13;0.45;;;5.70;99.90;;;;;;5035188;28;20053;-72
2024/01/20 04:03:43;;;;;;;0.22;0.22;;;5.80;99.90;;;;;;5035326;28;20025;-72
2024/01/20 04:06:09;;;;;;;0.70;0.70;;;5.80;99.90;;;;;;5033689;28;20049;-72
2024/01/20 04:08:35;;;;;;;0.20;0.20;;;5.80;99.90;;;;;;5035270;28;20105;-70
2024/01/20 04:11:00;;;;;;;1.95;0.55;;;5.90;99.90;;;;;;5034937;28;20045;-70
2024/01/20 04:13:26;;;;;;;2.55;0.52;;;5.90;99.90;;;;;;5035298;28;20473;-72
2024/01/20 04:15:53;;;;;;;0.32;0.32;;;5.90;99.90;;;;;;5034973;28;20488;-71
2024/01/20 04:18:19;;;;;;;4.72;0.75;;;5.90;99.90;;;;;;5033524;28;20374;-72
2024/01/20 04:20:44;;;;;;;0.50;0.50;;;5.90;99.90;;;;;;5034827;28;20521;-72
2024/01/20 04:23:10;;;;;;;1.38;0.50;;;5.90;99.90;;;;;;5034751;28;20136;-70
2024/01/20 04:25:36;;;;;;;2.50;1.30;;;5.80;99.90;;;;;;5034943;28;20038;-72
2024/01/20 04:28:02;;;;;;;2.50;0.93;;;5.80;99.90;;;;;;5034285;28;20026;-70
2024/01/20 04:30:27;;;;;;;0.20;0.20;;;5.80;99.90;;;;;;5034221;28;20025;-70
2024/01/20 04:32:53;;;;;;;1.98;0.40;;;5.80;99.90;;;;;;5034074;28;20118;-70
2024/01/20 04:35:24;;;;;;;0.43;0.43;;;5.80;99.90;;;;;;5034502;28;20036;-72
2024/01/20 04:37:50;;;;;;;6.43;3.38;;;5.90;99.90;;;;;;5033100;28;20412;-72
2024/01/20 04:40:16;;;;;;;1.52;1.42;;;5.80;99.90;;;;;;5033096;28;20029;-69
2024/01/20 04:42:41;;;;;;;7.78;3.92;;;5.60;99.90;;;;;;5034417;28;20079;-69
2024/01/20 04:45:08;;;;;;;10.25;4.45;;;5.40;99.90;;;;;;5033989;28;20033;-69
2024/01/20 04:47:33;;;;;;;10.82;5.70;;;5.10;99.90;;;;;;5032683;28;20040;-69
2024/01/20 04:49:59;;;;;;;11.32;5.05;;;5.00;99.90;;;;;;5034134;28;20030;-72
2024/01/20 04:52:24;;;;;;;10.88;5.78;;;4.80;99.90;;;;;;5032898;28;20064;-71
2024/01/20 04:54:52;;;;;;;12.07;5.20;;;4.70;99.90;;;;;;5033631;28;20535;-71
2024/01/20 04:57:19;;;;;;;16.88;8.35;;;4.50;99.90;;;;;;5033993;28;20458;-69
2024/01/20 04:59:45;;;;;;;7.80;3.72;;;4.30;99.90;;;;;;5034008;28;20465;-69
2024/01/20 05:02:10;;;;;;;12.48;7.10;;;4.20;99.90;;;;;;5033987;28;20017;-70
2024/01/20 05:04:36;;;;;;;11.93;5.50;;;4.10;99.90;;;;;;5033994;28;20060;-69
2024/01/20 05:07:01;;;;;;;7.18;5.47;;;3.90;99.90;;;;;;5034207;28;20406;-72
2024/01/20 05:09:27;;;;;;;18.30;7.85;;;3.80;99.90;;;;;;5032254;28;20459;-71
2024/01/20 05:11:52;;;;;;;11.48;6.30;;;3.80;99.90;;;;;;5032576;28;20410;-72
2024/01/20 05:14:18;;;;;;;7.93;4.15;;;3.70;99.90;;;;;;5033930;28;20029;-69
2024/01/20 05:16:44;;;;;;;18.13;7.90;;;3.60;99.90;;;;;;5032014;28;20128;-70
2024/01/20 05:19:09;;;;;;;15.98;8.10;;;3.60;99.90;;;;;;5032490;28;20125;-72
2024/01/20 05:21:35;;;;;;;16.35;8.88;;;3.50;99.90;;;;;;5033372;28;20030;-71
2024/01/20 05:24:00;;;;;;;11.05;6.38;;;3.40;99.90;;;;;;5033692;28;20395;-71
2024/01/20 05:26:26;;;;;;;19.17;9.70;;;3.30;99.90;;;;;;5033343;28;20061;-71
2024/01/20 05:28:51;;;;;;;12.77;7.03;;;3.20;99.90;;;;;;5033531;28;20521;-71
2024/01/20 05:31:17;;;;;;;5.20;4.75;;;3.20;99.90;;;;;;5033236;28;20350;-70
2024/01/20 05:33:43;;;;;;;15.15;6.60;;;3.10;99.90;;;;;;5033427;28;20026;-71
2024/01/20 05:36:11;;;;;;;21.52;7.82;;;3.20;99.90;;;;;;5033346;28;20129;-72
2024/01/20 05:38:37;;;;;;;2.85;2.70;;;3.10;99.90;;;;;;5033059;28;20536;-72
2024/01/20 05:41:02;;;;;;;7.53;6.72;;;3.10;99.90;;;;;;5033495;28;20042;-70
2024/01/20 05:43:28;;;;;;;4.75;3.78;;;3.10;99.90;;;;;;5032068;28;20067;-70
2024/01/20 05:45:53;;;;;;;4.90;3.90;;;3.10;99.90;;;;;;5032954;28;20111;-72
2024/01/20 05:48:21;;;;;;;5.57;4.22;;;3.10;99.90;;;;;;5033215;28;20112;-69
2024/01/20 05:50:47;;;;;;;15.00;5.95;;;3.20;99.90;;;;;;5033457;28;20033;-70
2024/01/20 05:53:12;;;;;;;19.23;8.38;;;3.20;99.90;;;;;;5033224;28;20116;-70
2024/01/20 05:55:38;;;;;;;19.30;10.45;;;3.20;99.90;;;;;;5032934;28;20033;-70
2024/01/20 05:58:03;;;;;;;10.23;6.95;;;3.20;99.90;;;;;;5033300;28;20080;-70
2024/01/20 06:00:29;;;;;;;14.82;8.43;;;3.20;99.90;;;;;;5032573;28;20033;-72
2024/01/20 06:02:54;;;;;;;11.07;7.13;;;3.20;99.90;;;;;;5032782;28;20034;-70
2024/01/20 06:05:20;;;;;;;18.85;8.05;;;3.20;99.90;;;;;;5033001;28;20029;-71
2024/01/20 06:07:45;;;;;;;4.43;3.30;;;3.20;99.90;;;;;;5031579;28;20039;-71
2024/01/20 06:10:11;;;;;;;18.60;9.80;;;3.10;99.90;;;;;;5032335;28;20045;-72
2024/01/20 06:12:36;;;;;;;12.02;6.72;;;3.10;99.90;;;;;;5032802;28;20116;-71
2024/01/20 06:15:02;;;;;;;4.10;3.90;;;3.00;99.90;;;;;;5032627;28;20021;-70
2024/01/20 06:17:28;;;;;;;15.20;7.82;;;3.00;99.90;;;;;;5032550;28;20033;-72
2024/01/20 06:19:53;;;;;;;13.02;7.47;;;2.90;99.90;;;;;;5032723;28;20032;-73
2024/01/20 06:22:19;;;;;;;25.17;13.50;;;2.80;99.90;;;;;;5032765;28;20032;-72
2024/01/20 06:24:44;;;;;;;20.67;10.82;;;2.70;99.90;;;;;;5032765;28;20469;-71
2024/01/20 06:27:10;;;;;;;13.82;7.07;;;2.60;99.90;;;;;;5032505;28;20424;-70
2024/01/20 06:29:42;;;;;;;8.57;5.75;;;2.50;99.90;;;;;;5032396;28;20450;-68
2024/01/20 06:32:08;;;;;;;11.20;6.95;;;2.40;99.90;;;;;;5032649;28;20028;-69
2024/01/20 06:34:33;;;;;;;9.88;5.72;;;2.30;99.90;;;;;;5032977;28;20029;-69
2024/01/20 06:36:59;;;;;;;14.20;8.43;;;2.30;99.90;;;;;;5032403;28;20124;-72
2024/01/20 06:39:24;;;;;;;15.90;7.20;;;2.20;99.90;;;;;;5033062;28;20493;-72
2024/01/20 06:41:50;;;;;;;17.40;7.47;;;2.20;99.90;;;;;;5031008;28;20083;-69
2024/01/20 06:44:16;;;;;;;15.52;8.75;;;2.10;99.90;;;;;;5032325;28;20484;-72
2024/01/20 06:46:42;;;;;;;14.50;8.52;;;2.10;99.90;;;;;;5031280;28;20369;-69
2024/01/20 06:49:07;;;;;;;16.40;10.07;;;2.10;99.90;;;;;;5032590;28;20034;-72
2024/01/20 06:51:33;;;;;;;29.98;10.57;;;2.10;99.90;;;;;;5031164;28;20029;-72
2024/01/20 06:53:59;;;;;;;6.13;4.68;;;2.10;99.90;;;;;;5032667;28;20026;-69
2024/01/20 06:56:25;;;;;;;24.05;11.00;;;2.10;99.90;;;;;;5032350;28;20120;-71
2024/01/20 06:58:53;;;;;;;33.33;12.77;;;2.10;99.90;;;;;;5032110;28;20477;-72
2024/01/20 07:01:19;;;;;;;9.93;3.90;;;2.00;99.90;;;;;;5031997;28;20485;-72
2024/01/20 07:03:45;;;;;;;12.77;8.25;;;2.10;99.90;;;;;;5032444;28;20068;-69
2024/01/20 07:06:11;;;;;;;14.05;7.82;;;2.10;99.90;;;;;;5032465;28;20061;-70
2024/01/20 07:08:36;;;;;;;18.42;9.27;;;2.10;99.90;;;;;;5032360;28;20025;-69
2024/01/20 07:11:06;;;;;;;12.68;7.25;;;2.10;99.90;;;;;;5031670;28;20042;-70
2024/01/20 07:13:32;;;;;;;7.40;4.80;;;2.10;99.90;;;;;;5030902;28;20460;-71
2024/01/20 07:15:57;;;;;;;21.38;10.50;;;2.10;99.90;;;;;;5032185;28;20120;-71
2024/01/20 07:18:23;;;;;;;9.15;5.45;;;2.10;99.90;;;;;;5032183;28;20060;-71
2024/01/20 07:20:48;;;;;;;14.63;8.80;;;2.10;99.90;;;;;;5032950;28;20029;-72
2024/01/20 07:23:14;;;;;;;16.10;8.88;;;2.10;99.90;;;;;;5035853;28;20025;-71
2024/01/20 07:25:40;;;;;;;14.05;6.05;;;2.10;99.90;;;;;;5035988;28;20065;-69
2024/01/20 07:28:06;;;;;;;10.60;6.03;;;2.10;99.90;;;;;;5036211;28;20105;-72
2024/01/20 07:30:32;;;;;;;5.75;4.25;;;2.10;99.90;;;;;;5034236;28;20060;-70
2024/01/20 07:32:58;;;;;;;5.68;3.97;;;2.20;99.90;;;;;;5035601;28;20061;-71
2024/01/20 07:35:24;;;;;;;14.63;6.95;;;2.20;99.90;;;;;;5035147;28;20044;-70
2024/01/20 07:37:50;;;;;;;18.17;8.73;;;2.20;99.90;;;;;;5035561;28;20454;-71
2024/01/20 07:40:16;;;;;;;11.85;6.22;;;2.30;99.90;;;;;;5033715;28;20033;-70
2024/01/20 07:42:43;;;;;;;10.13;6.43;;;2.20;99.90;;;;;;5034975;28;20385;-70
2024/01/20 07:45:09;;;;;;;16.95;8.15;;;2.20;99.90;;;;;;5035560;28;20055;-69
2024/01/20 07:47:34;;;;;;;12.55;4.97;;;2.30;99.90;;;;;;5034034;28;20470;-69
2024/01/20 07:50:00;;;;;;;6.95;4.50;;;2.30;99.90;;;;;;5035472;28;20026;-71
2024/01/20 07:52:26;;;;;;;11.23;5.15;;;2.20;99.90;;;;;;5035652;28;20037;-71
2024/01/20 07:54:51;;;;;;;8.55;5.40;;;2.20;99.90;;;;;;5034740;28;20424;-69
2024/01/20 07:57:17;;;;;;;23.13;9.75;;;2.30;99.90;;;;;;5034810;28;20049;-71
2024/01/20 07:59:42;;;;;;;4.50;3.35;;;2.30;99.90;;;;;;5035036;28;20401;-70
2024/01/20 08:02:08;;;;;;;8.00;4.85;;;2.30;99.90;;;;;;5035037;28;20034;-71
2024/01/20 08:04:33;;;;;;;8.93;5.43;;;2.30;99.90;;;;;;5035310;28;20022;-71
2024/01/20 08:06:59;;;;;;;16.60;7.85;;;2.30;99.90;;;;;;5035299;28;20025;-71
2024/01/20 08:09:24;;;;;;;11.70;5.82;;;2.30;99.90;;;;;;5034375;28;20045;-71
2024/01/20 08:11:50;;;;;;;17.40;8.60;;;2.30;99.90;;;;;;5034700;28;20036;-71
2024/01/20 08:14:15;;;;;;;13.38;6.35;;;2.30;99.90;;;;;;5034872;28;20060;-70
2024/01/20 08:16:41;;;;;;;10.52;5.80;;;2.30;99.90;;;;;;5034421;28;20071;-69
2024/01/20 08:19:07;;;;;;;9.32;5.70;;;2.30;99.90;;;;;;5034411;28;20057;-72
2024/01/20 08:21:34;;;;;;;4.80;3.58;;;2.30;99.90;;;;;;5034491;28;20029;-72
2024/01/20 08:23:59;;;;;;;8.27;5.05;;;2.30;99.90;;;;;;5034766;28;20103;-69
2024/01/20 08:26:25;;;;;;;11.00;6.25;;;2.30;99.90;;;;;;5034617;28;20069;-72
2024/01/20 08:28:51;;;;;;;12.32;7.13;;;2.30;99.90;;;;;;5034759;28;20030;-71
2024/01/20 08:31:16;;;;;;;7.85;3.40;;;2.40;99.90;;;;;;5034049;28;20107;-73
2024/01/20 08:33:42;;;;;;;17.08;7.32;;;2.40;99.90;;;;;;5034342;28;20028;-70
2024/01/20 08:36:08;;;;;;;11.85;6.32;;;2.40;99.90;;;;;;5034233;28;20411;-71
2024/01/20 08:38:33;;;;;;;10.95;5.93;;;2.50;99.90;;;;;;5032975;28;20457;-69
2024/01/20 08:40:59;;;;;;;6.43;4.82;;;2.50;99.90;;;;;;5034180;28;20053;-71
2024/01/20 08:43:24;;;;;;;2.72;2.55;;;2.60;99.90;;;;;;5034340;28;20512;-68
2024/01/20 08:45:51;;;;;;;6.80;5.30;;;2.60;99.90;;;;;;5034460;28;20041;-71
2024/01/20 08:48:17;;;;;;;12.10;5.22;;;2.70;99.90;;;;;;5032992;28;20454;-70
2024/01/20 08:50:42;;;;;;;8.73;4.93;;;2.70;99.90;;;;;;5034394;28;20021;-70
2024/01/20 08:53:08;;;;;;;7.82;4.78;;;2.80;99.90;;;;;;5034202;28;20088;-72
2024/01/20 08:55:33;;;;;;;4.72;4.00;;;2.90;99.90;;;;;;5033838;28;20092;-73
2024/01/20 08:58:01;;;;;;;13.93;7.47;;;3.00;99.90;;;;;;5032603;28;20112;-72
2024/01/20 09:00:27;;;;;;;7.13;4.68;;;3.00;99.90;;;;;;5033850;28;20113;-71
2024/01/20 09:02:53;;;;;;;10.82;5.55;;;3.00;99.90;;;;;;5033925;28;20365;-72
2024/01/20 09:05:19;;;;;;;12.27;6.60;;;3.10;99.90;;;;;;5033841;28;20025;-70
2024/01/20 09:07:44;;;;;;;11.27;5.25;;;3.10;99.90;;;;;;5033050;28;20025;-72
2024/01/20 09:10:10;;;;;;;14.30;7.10;;;3.10;99.90;;;;;;5033351;28;20080;-71
2024/01/20 09:12:35;;;;;;;8.95;5.28;;;3.10;99.90;;;;;;5033674;28;20025;-71
2024/01/20 09:15:01;;;;;;;23.55;10.25;;;3.20;99.90;;;;;;5033664;28;20071;-71
2024/01/20 09:17:26;;;;;;;7.65;3.60;;;3.30;99.90;;;;;;5033373;28;20079;-72
2024/01/20 09:19:52;;;;;;;12.95;7.00;;;3.40;99.90;;;;;;5032911;28;20116;-71
2024/01/20 09:22:18;;;;;;;8.40;4.63;;;3.40;99.90;;;;;;5032621;28;20061;-72
2024/01/20 09:24:43;;;;;;;10.90;5.82;;;3.50;99.90;;;;;;5033096;28;20087;-72
2024/01/20 09:27:09;;;;;;;7.22;4.38;;;3.60;99.90;;;;;;5032721;28;20038;-70
2024/01/20 09:29:34;;;;;;;8.70;4.15;;;3.60;99.90;;;;;;5033482;28;20105;-68
2024/01/20 09:32:00;;;;;;;15.30;7.18;;;3.70;99.90;;;;;;5033166;28;20496;-72
2024/01/20 09:34:26;;;;;;;13.85;5.72;;;3.80;99.90;;;;;;5033244;28;20053;-70
2024/01/20 09:36:51;;;;;;;7.43;4.45;;;3.80;99.90;;;;;;5033011;28;20103;-71
2024/01/20 09:39:17;;;;;;;17.60;8.40;;;3.80;99.90;;;;;;5032560;28;20033;-71
2024/01/20 09:41:43;;;;;;;18.67;6.85;;;3.80;99.90;;;;;;5032711;28;20112;-70
2024/01/20 09:44:11;;;;;;;8.75;4.65;;;3.80;99.90;;;;;;5032193;28;20117;-71
2024/01/20 09:46:37;;;;;;;15.80;6.30;;;3.80;99.90;;;;;;5032887;28;20032;-69
2024/01/20 09:49:02;;;;;;;2.60;1.48;;;3.90;99.90;;;;;;5032110;28;20029;-71
2024/01/20 09:51:28;;;;;;;13.93;5.60;;;3.90;99.90;;;;;;5032718;28;20030;-71
2024/01/20 09:53:59;;;;;;;6.25;2.80;;;4.00;99.90;;;;;;5033033;28;20083;-70
2024/01/20 09:56:27;;;;;;;5.97;2.10;;;4.00;99.90;;;;;;5033069;28;20033;-71
2024/01/20 09:58:58;;;;;;;8.98;4.10;;;4.10;99.90;;;;;;5032390;28;20034;-71
2024/01/20 10:01:26;;;;;;;13.18;6.50;;;4.10;99.90;;;;;;5032924;28;20033;-71
2024/01/20 10:03:53;;;;;;;12.18;5.72;;;4.10;99.90;;;;;;5032633;28;20026;-71
2024/01/20 10:06:18;;;;;;;4.30;3.90;;;4.20;99.90;;;;;;5032456;28;20040;-70
2024/01/20 10:08:44;;;;;;;20.38;5.55;;;4.30;99.90;;;;;;5032014;28;20120;-74
2024/01/20 10:11:09;;;;;;;18.42;6.88;;;4.40;99.90;;;;;;5032702;28;20057;-71
2024/01/20 10:13:36;;;;;;;7.93;4.47;;;4.40;99.90;;;;;;5031273;28;20029;-72
2024/01/20 10:16:03;;;;;;;5.47;4.38;;;4.50;99.90;;;;;;5031897;28;20486;-71
2024/01/20 10:18:29;;;;;;;5.20;3.45;;;4.60;99.90;;;;;;5031548;28;20079;-70
2024/01/20 10:21:05;;;;;;;8.15;3.63;;;4.70;99.90;;;;;;5032794;28;20113;-72
2024/01/20 10:23:35;;;;;;;7.07;4.10;;;4.70;99.90;;;;;;5032550;28;20377;-71
2024/01/20 10:26:06;;;;;;;10.75;4.18;;;4.90;99.90;;;;;;5028531;28;20026;-70
2024/01/20 10:28:32;;;;;;;2.40;1.58;;;5.00;99.90;;;;;;5028488;28;20095;-70
2024/01/20 10:30:58;;;;;;;2.83;1.33;;;5.00;99.90;;;;;;5032203;28;20163;-70
2024/01/20 10:33:24;;;;;;;3.00;2.70;;;5.10;99.90;;;;;;5031440;28;20111;-72
2024/01/20 10:35:50;;;;;;;2.35;1.70;;;5.20;99.90;;;;;;5031830;28;20172;-70
2024/01/20 10:38:20;;;;;;;8.38;3.75;;;5.30;99.90;;;;;;5031802;28;20446;-70
2024/01/20 10:40:57;;;;;;;10.20;4.45;;;5.30;99.90;;;;;;5031634;28;20111;-71
2024/01/20 10:43:24;;;;;;;13.07;5.15;;;5.20;99.90;;;;;;5030793;28;20021;-70
2024/01/20 10:46:00;;;;;;;10.55;4.28;;;5.20;99.90;;;;;;5031796;28;20036;-70
2024/01/20 10:48:27;;;;;;;10.90;4.45;;;5.10;99.90;;;;;;5032122;28;20025;-71
2024/01/20 10:50:57;;;;;;;9.15;4.57;;;5.20;99.90;;;;;;5032567;28;20026;-71
2024/01/20 10:53:26;;;;;;;7.25;3.30;;;5.10;99.90;;;;;;5031211;28;20025;-71
2024/01/20 10:55:53;;;;;;;1.70;1.33;;;5.00;99.90;;;;;;5031669;28;20037;-70
2024/01/20 10:58:27;;;;;;;8.43;3.83;;;5.10;99.90;;;;;;5034184;28;20055;-70
2024/01/20 11:00:54;;;;;;;7.00;3.10;;;5.10;99.90;;;;;;5032699;28;20119;-71
2024/01/20 11:03:21;;;;;;;10.07;2.78;;;5.10;99.90;;;;;;5033668;28;20035;-71
2024/01/20 11:05:47;;;;;;;3.38;1.52;;;5.00;99.90;;;;;;5034697;28;20575;-72
2024/01/20 11:08:13;;;;;;;8.75;4.32;;;5.00;99.90;;;;;;5033825;28;20366;-70
2024/01/20 11:10:40;;;;;;;6.82;3.30;;;5.10;99.90;;;;;;5034554;28;20402;-73
2024/01/20 11:13:06;;;;;;;5.32;2.80;;;5.00;99.90;;;;;;5035803;28;20064;-69
2024/01/20 11:15:33;;;;;;;7.43;3.80;;;5.10;99.90;;;;;;5030430;28;20477;-72
2024/01/20 11:18:00;;;;;;;5.93;2.92;;;5.30;99.90;;;;;;5035422;28;20061;-71
2024/01/20 11:20:26;;;;;;;7.40;4.28;;;5.50;99.90;;;;;;5034532;28;20025;-72
2024/01/20 11:22:54;;;;;;;1.75;1.55;;;5.60;99.90;;;;;;5035560;28;20045;-73
2024/01/20 11:25:22;;;;;;;3.50;2.10;;;5.80;99.90;;;;;;5035507;28;20505;-70
2024/01/20 11:27:58;;;;;;;1.45;1.10;;;5.90;99.90;;;;;;5039411;28;20095;-72
2024/01/20 11:30:34;;;;;;;11.88;4.22;;;5.90;99.90;;;;;;5039452;28;20018;-71
2024/01/20 11:33:01;;;;;;;2.90;1.38;;;5.90;99.90;;;;;;5033944;28;20030;-70
2024/01/20 11:35:27;;;;;;;6.72;2.45;;;5.80;99.90;;;;;;5034885;28;20028;-70
2024/01/20 11:37:57;;;;;;;5.15;1.75;;;5.90;99.90;;;;;;5034662;28;20105;-70
2024/01/20 11:40:23;;;;;;;4.20;2.10;;;6.30;99.90;;;;;;5034593;28;20040;-70
2024/01/20 11:42:49;;;;;;;5.57;2.15;;;6.50;99.90;;;;;;5033974;28;20047;-70
2024/01/20 11:45:16;;;;;;;9.20;3.53;;;6.60;99.90;;;;;;5033436;28;20028;-71
2024/01/20 11:47:42;;;;;;;7.30;2.25;;;6.60;99.90;;;;;;5034767;28;20116;-70
2024/01/20 11:50:08;;;;;;;3.15;1.83;;;6.40;99.90;;;;;;5035346;28;20096;-71
2024/01/20 11:52:34;;;;;;;5.28;1.95;;;6.30;99.90;;;;;;5034860;28;20064;-71
2024/01/20 11:55:00;;;;;;;5.38;2.67;;;6.20;99.90;;;;;;5035166;28;20045;-70
2024/01/20 11:57:29;;;;;;;2.22;1.55;;;6.00;99.90;;;;;;5034339;28;20033;-69
2024/01/20 11:59:56;;;;;;;5.72;2.78;;;6.00;99.90;;;;;;5033670;28;20021;-70
2024/01/20 12:02:22;;;;;;;1.48;0.28;;;6.20;99.90;;;;;;5034809;28;20052;-69
2024/01/20 12:04:48;;;;;;;8.15;1.52;;;6.70;99.90;;;;;;5034885;28;20072;-70
2024/01/20 12:07:14;;;;;;;1.60;1.17;;;7.60;99.90;;;;;;5034054;28;20032;-70
2024/01/20 12:09:46;;;;;;;2.00;1.80;;;8.00;99.90;;;;;;5033180;28;20053;-71
2024/01/20 12:12:13;;;;;;;2.67;2.13;;;8.70;99.90;;;;;;5035056;28;20038;-70
2024/01/20 12:14:43;;;;;;;10.32;3.40;;;9.00;99.90;;;;;;5033153;28;20029;-71
2024/01/20 12:17:10;;;;;;;4.20;2.30;;;9.00;99.90;;;;;;5033046;28;20038;-71
2024/01/20 12:19:39;;;;;;;7.63;2.90;;;8.80;99.90;;;;;;5033617;28;20030;-71
2024/01/20 12:22:12;;;;;;;9.85;2.97;;;8.50;99.90;;;;;;5034205;28;20044;-71
2024/01/20 12:24:37;;;;;;;9.00;3.78;;;8.20;99.90;;;;;;5034399;28;20105;-71
2024/01/20 12:27:06;;;;;;;5.05;1.95;;;7.80;99.90;;;;;;5034607;28;20100;-71
2024/01/20 12:29:32;;;;;;;7.38;3.33;;;7.40;99.90;;;;;;5034693;28;20075;-71
2024/01/20 12:31:58;;;;;;;2.53;1.27;;;7.20;99.90;;;;;;5034336;28;20033;-71
2024/01/20 12:34:27;;;;;;;12.50;4.35;;;6.80;99.90;;;;;;5034080;28;20532;-70
2024/01/20 12:36:53;;;;;;;10.77;4.13;;;6.60;99.90;;;;;;5034466;28;20120;-70
2024/01/20 12:39:23;;;;;;;4.15;2.05;;;6.30;99.90;;;;;;5033795;28;20026;-70
2024/01/20 12:41:49;;;;;;;7.78;2.55;;;6.20;99.90;;;;;;5032337;28;20394;-70
2024/01/20 12:44:16;;;;;;;4.72;2.67;;;6.20;99.90;;;;;;5033930;28;20096;-70
2024/01/20 12:46:42;;;;;;;4.45;2.15;;;6.50;99.90;;;;;;5032469;28;20022;-70